| time (UTC) | temp C | wind direction | speed KPH | gust KPH | rain 1hr cm | rain 24hr cm | rain mn cm | humidity % | barometer mb |
| 20260508043016 | 7 | 158 | 1.6 | 6.4 | 0.00 | 0.23 | 0.00 | 92 | 1014.1 |
| 20260508042016 | 8 | 155 | 1.6 | 6.4 | 0.00 | 0.23 | 0.00 | 89 | 1014.0 |
| 20260508041016 | 8 | 1 | 0.0 | 3.2 | 0.00 | 0.23 | 0.00 | 91 | 1014.0 |
| 20260508040036 | 7 | 105 | 0.0 | 8.0 | 0.00 | 0.23 | 0.00 | 93 | 1013.9 |
| 20260508035016 | 8 | 70 | 1.6 | 6.4 | 0.00 | 0.23 | 0.23 | 93 | 1013.8 |
| 20260508034017 | 8 | 185 | 1.6 | 4.8 | 0.00 | 0.23 | 0.23 | 95 | 1013.8 |
| 20260508033016 | 8 | 145 | 1.6 | 8.0 | 0.00 | 0.25 | 0.23 | 96 | 1013.7 |
| 20260508032037 | 8 | 66 | 3.2 | 8.0 | 0.00 | 0.25 | 0.23 | 96 | 1013.7 |
| 20260508031017 | 8 | 315 | 1.6 | 6.4 | 0.00 | 0.28 | 0.23 | 96 | 1013.6 |
| 20260508030017 | 8 | 105 | 3.2 | 6.4 | 0.00 | 0.51 | 0.23 | 97 | 1013.4 |
| 20260508025017 | 9 | 157 | 3.2 | 8.0 | 0.00 | 0.58 | 0.23 | 98 | 1013.4 |
| 20260508024017 | 9 | 141 | 3.2 | 4.8 | 0.00 | 0.64 | 0.23 | 99 | 1013.3 |
| 20260508023018 | 9 | 293 | 1.6 | 4.8 | 0.00 | 0.69 | 0.23 | 100 | 1013.4 |
| 20260508022017 | 9 | 187 | 3.2 | 6.4 | 0.00 | 0.69 | 0.23 | 99 | 1013.1 |
| 20260508021038 | 10 | 215 | 0.0 | 1.6 | 0.00 | 0.69 | 0.23 | 99 | 1013.0 |
| 20260508020038 | 10 | 141 | 3.2 | 6.4 | 0.00 | 0.69 | 0.23 | 99 | 1012.7 |
| 20260508015018 | 10 | 126 | 1.6 | 6.4 | 0.00 | 0.69 | 0.23 | 99 | 1012.6 |
| 20260508014036 | 10 | 146 | 3.2 | 4.8 | 0.00 | 0.69 | 0.23 | 99 | 1012.4 |
| 20260508013016 | 11 | 160 | 3.2 | 4.8 | 0.00 | 0.69 | 0.23 | 99 | 1012.1 |
| 20260508012016 | 11 | 151 | 1.6 | 3.2 | 0.00 | 0.69 | 0.23 | 100 | 1012.0 |
| 20260508011016 | 11 | 10 | 0.0 | 3.2 | 0.00 | 0.69 | 0.23 | 99 | 1011.8 |
| 20260508010016 | 11 | 293 | 1.6 | 6.4 | 0.00 | 0.69 | 0.23 | 99 | 1011.7 |
| 20260508005016 | 12 | 297 | 1.6 | 3.2 | 0.00 | 0.69 | 0.23 | 98 | 1011.8 |
| 20260508004016 | 12 | 302 | 1.6 | 3.2 | 0.00 | 0.69 | 0.23 | 97 | 1011.8 |
| 20260508003016 | 12 | 303 | 1.6 | 3.2 | 0.00 | 0.69 | 0.23 | 96 | 1011.8 |
| 20260508002016 | 12 | 295 | 0.0 | 3.2 | 0.00 | 0.69 | 0.23 | 94 | 1011.9 |
| 20260508001016 | 13 | 133 | 0.0 | 3.2 | 0.00 | 0.69 | 0.23 | 92 | 1011.9 |
| 20260508000017 | 14 | 202 | 1.6 | 3.2 | 0.00 | 0.69 | 0.23 | 90 | 1011.8 |
| 20260507235016 | 15 | 235 | 1.6 | 3.2 | 0.00 | 0.69 | 0.23 | 88 | 1011.6 |
| 20260507234017 | 15 | 147 | 1.6 | 3.2 | 0.00 | 0.69 | 0.23 | 86 | 1011.4 |
| 20260507233016 | 15 | 154 | 1.6 | 4.8 | 0.00 | 0.69 | 0.23 | 87 | 1011.3 |
| 20260507232017 | 15 | 120 | 3.2 | 6.4 | 0.00 | 0.69 | 0.23 | 87 | 1011.0 |
| 20260507231017 | 15 | 131 | 1.6 | 4.8 | 0.00 | 0.69 | 0.23 | 88 | 1010.9 |
| 20260507230017 | 15 | 59 | 3.2 | 8.0 | 0.00 | 0.69 | 0.23 | 88 | 1010.7 |
| 20260507225017 | 15 | 95 | 3.2 | 6.4 | 0.00 | 0.69 | 0.23 | 86 | 1010.7 |
| 20260507224018 | 15 | 179 | 1.6 | 4.8 | 0.00 | 0.69 | 0.23 | 88 | 1010.5 |
| 20260507223018 | 16 | 114 | 4.8 | 11.3 | 0.00 | 0.69 | 0.23 | 86 | 1010.5 |
| 20260507222038 | 17 | 107 | 3.2 | 9.7 | 0.00 | 0.69 | 0.23 | 84 | 1010.2 |
| 20260507221018 | 17 | 191 | 3.2 | 6.4 | 0.00 | 0.69 | 0.23 | 84 | 1010.3 |
| 20260507220016 | 16 | 193 | 3.2 | 8.0 | 0.00 | 0.69 | 0.23 | 87 | 1010.2 |
| 20260507215016 | 15 | 139 | 3.2 | 8.0 | 0.00 | 0.69 | 0.23 | 91 | 1010.2 |
| 20260507214036 | 15 | 120 | 3.2 | 8.0 | 0.00 | 0.69 | 0.23 | 91 | 1010.5 |
| 20260507213016 | 15 | 123 | 3.2 | 8.0 | 0.00 | 0.69 | 0.23 | 89 | 1010.6 |
| 20260507212016 | 16 | 143 | 3.2 | 6.4 | 0.00 | 0.69 | 0.23 | 87 | 1010.6 |
| 20260507211016 | 16 | 173 | 1.6 | 6.4 | 0.00 | 0.69 | 0.23 | 88 | 1010.4 |
| 20260507210016 | 15 | 156 | 3.2 | 6.4 | 0.00 | 0.69 | 0.23 | 91 | 1010.0 |
| 20260507205017 | 15 | 140 | 3.2 | 6.4 | 0.00 | 0.69 | 0.23 | 90 | 1010.3 |
| 20260507204017 | 15 | 121 | 3.2 | 6.4 | 0.00 | 0.69 | 0.23 | 90 | 1010.2 |
| 20260507203017 | 15 | 194 | 3.2 | 8.0 | 0.00 | 0.69 | 0.23 | 94 | 1010.2 |
| 20260507202017 | 15 | 105 | 3.2 | 9.7 | 0.00 | 0.69 | 0.23 | 94 | 1010.2 |
| 20260507201017 | 13 | 114 | 4.8 | 11.3 | 0.00 | 0.69 | 0.23 | 97 | 1010.2 |
| 20260507200017 | 13 | 77 | 6.4 | 12.9 | 0.00 | 0.69 | 0.23 | 97 | 1010.6 |
| 20260507195017 | 13 | 98 | 6.4 | 11.3 | 0.05 | 0.69 | 0.23 | 98 | 1010.8 |
| 20260507194020 | 12 | 111 | 4.8 | 8.0 | 0.08 | 0.69 | 0.23 | 99 | 1011.0 |
| 20260507193023 | 12 | 111 | 4.8 | 6.4 | 0.08 | 0.69 | 0.23 | 99 | 1011.4 |
| 20260507192024 | 12 | 118 | 4.8 | 8.0 | 0.08 | 0.69 | 0.23 | 99 | 1011.5 |
| 20260507191021 | 12 | 107 | 4.8 | 8.0 | 0.08 | 0.69 | 0.23 | 99 | 1011.5 |
| 20260507190024 | 13 | 123 | 4.8 | 8.0 | 0.08 | 0.69 | 0.23 | 98 | 1011.4 |
| 20260507185024 | 13 | 63 | 3.2 | 6.4 | 0.05 | 0.64 | 0.18 | 98 | 1011.5 |
| 20260507184024 | 13 | 95 | 3.2 | 6.4 | 0.05 | 0.64 | 0.15 | 98 | 1011.5 |
| 20260507183024 | 13 | 83 | 3.2 | 4.8 | 0.03 | 0.64 | 0.15 | 98 | 1011.5 |
| 20260507182024 | 13 | 119 | 1.6 | 3.2 | 0.03 | 0.64 | 0.15 | 98 | 1011.5 |
| 20260507181025 | 13 | 80 | 3.2 | 4.8 | 0.05 | 0.64 | 0.15 | 98 | 1011.5 |
| 20260507180025 | 13 | 328 | 1.6 | 3.2 | 0.10 | 0.64 | 0.13 | 98 | 1011.4 |
| 20260507175025 | 13 | 89 | 3.2 | 6.4 | 0.10 | 0.61 | 0.13 | 98 | 1011.6 |
| 20260507174017 | 13 | 55 | 3.2 | 4.8 | 0.08 | 0.61 | 0.13 | 97 | 1011.4 |
| 20260507173037 | 14 | 75 | 3.2 | 4.8 | 0.08 | 0.61 | 0.10 | 97 | 1011.4 |
| 20260507172017 | 14 | 51 | 1.6 | 4.8 | 0.08 | 0.61 | 0.10 | 96 | 1011.4 |
| 20260507171020 | 14 | 301 | 1.6 | 4.8 | 0.08 | 0.58 | 0.10 | 95 | 1011.6 |
| 20260507170037 | 15 | 333 | 3.2 | 6.4 | 0.00 | 0.53 | 0.05 | 93 | 1011.4 |
| 20260507165017 | 15 | 46 | 3.2 | 8.0 | 0.00 | 0.53 | 0.03 | 92 | 1011.2 |
| 20260507164022 | 15 | 57 | 3.2 | 6.4 | 0.00 | 0.56 | 0.03 | 90 | 1011.3 |
| 20260507163017 | 15 | 291 | 1.6 | 4.8 | 0.00 | 0.56 | 0.03 | 90 | 1011.3 |
| 20260507162017 | 15 | 62 | 3.2 | 6.4 | 0.00 | 0.56 | 0.03 | 90 | 1011.3 |
| 20260507161018 | 15 | 307 | 3.2 | 8.0 | 0.00 | 0.56 | 0.03 | 90 | 1011.3 |
| 20260507160018 | 15 | 46 | 3.2 | 9.7 | 0.00 | 0.56 | 0.03 | 88 | 1011.5 |
| 20260507155018 | 15 | 303 | 3.2 | 6.4 | 0.00 | 0.56 | 0.03 | 87 | 1011.6 |
| 20260507154018 | 15 | 306 | 4.8 | 9.7 | 0.00 | 0.56 | 0.03 | 88 | 1011.7 |
| 20260507153018 | 15 | 310 | 3.2 | 6.4 | 0.00 | 0.56 | 0.03 | 89 | 1011.7 |
| 20260507152039 | 15 | 312 | 3.2 | 8.0 | 0.00 | 0.56 | 0.03 | 87 | 1011.7 |
| 20260507151019 | 15 | 309 | 3.2 | 9.7 | 0.00 | 0.56 | 0.03 | 86 | 1011.5 |
| 20260507150016 | 15 | 302 | 3.2 | 6.4 | 0.00 | 0.56 | 0.03 | 87 | 1011.6 |
| 20260507145016 | 15 | 307 | 4.8 | 8.0 | 0.00 | 0.56 | 0.03 | 86 | 1011.5 |
| 20260507144016 | 15 | 307 | 4.8 | 9.7 | 0.00 | 0.56 | 0.03 | 86 | 1011.4 |
| 20260507143016 | 15 | 307 | 3.2 | 9.7 | 0.00 | 0.56 | 0.03 | 88 | 1011.2 |
| 20260507142036 | 15 | 303 | 3.2 | 4.8 | 0.00 | 0.56 | 0.03 | 89 | 1011.3 |
| 20260507141017 | 15 | 310 | 3.2 | 9.7 | 0.00 | 0.58 | 0.03 | 89 | 1011.4 |
| 20260507140020 | 15 | 310 | 3.2 | 6.4 | 0.00 | 0.61 | 0.03 | 88 | 1011.1 |
| 20260507135017 | 16 | 304 | 4.8 | 9.7 | 0.00 | 0.64 | 0.03 | 85 | 1011.6 |
| 20260507134017 | 16 | 305 | 6.4 | 12.9 | 0.00 | 0.66 | 0.03 | 85 | 1011.6 |
| 20260507133017 | 16 | 304 | 6.4 | 9.7 | 0.00 | 0.66 | 0.03 | 86 | 1011.3 |
| 20260507132017 | 16 | 302 | 3.2 | 6.4 | 0.00 | 0.66 | 0.03 | 86 | 1011.5 |
| 20260507131017 | 15 | 294 | 3.2 | 8.0 | 0.00 | 0.69 | 0.03 | 87 | 1011.7 |
| 20260507130037 | 15 | 304 | 1.6 | 3.2 | 0.00 | 0.71 | 0.03 | 88 | 1011.7 |
| 20260507125018 | 15 | 309 | 3.2 | 6.4 | 0.00 | 0.71 | 0.03 | 87 | 1011.7 |
| 20260507124038 | 15 | 311 | 4.8 | 9.7 | 0.00 | 0.71 | 0.03 | 88 | 1011.7 |
| 20260507123018 | 15 | 310 | 4.8 | 11.3 | 0.00 | 0.71 | 0.03 | 89 | 1011.9 |
| 20260507122058 | 15 | 305 | 6.4 | 12.9 | 0.00 | 0.71 | 0.03 | 90 | 1011.4 |
| 20260507121016 | 15 | 310 | 3.2 | 6.4 | 0.00 | 0.71 | 0.03 | 91 | 1011.2 |
| 20260507120015 | 15 | 312 | 4.8 | 8.0 | 0.00 | 0.71 | 0.03 | 92 | 1011.5 |
| 20260507115016 | 15 | 302 | 3.2 | 4.8 | 0.00 | 0.71 | 0.03 | 91 | 1011.3 |
| 20260507114016 | 15 | 302 | 1.6 | 4.8 | 0.00 | 0.71 | 0.03 | 92 | 1011.2 |
| 20260507113016 | 15 | 302 | 3.2 | 4.8 | 0.00 | 0.71 | 0.03 | 93 | 1011.2 |
| 20260507112016 | 15 | 308 | 4.8 | 9.7 | 0.00 | 0.71 | 0.03 | 94 | 1011.1 |
| 20260507111016 | 15 | 302 | 3.2 | 9.7 | 0.00 | 0.74 | 0.03 | 95 | 1010.8 |
| 20260507110036 | 15 | 301 | 3.2 | 6.4 | 0.00 | 0.74 | 0.03 | 95 | 1011.1 |
| 20260507105016 | 15 | 305 | 3.2 | 6.4 | 0.00 | 0.74 | 0.03 | 95 | 1010.7 |
| 20260507104037 | 15 | 313 | 1.6 | 4.8 | 0.00 | 0.74 | 0.03 | 96 | 1010.9 |
| 20260507103017 | 15 | 303 | 3.2 | 4.8 | 0.00 | 0.74 | 0.03 | 97 | 1010.9 |
| 20260507102017 | 15 | 307 | 3.2 | 8.0 | 0.00 | 0.74 | 0.03 | 97 | 1011.0 |
| 20260507101017 | 15 | 305 | 3.2 | 8.0 | 0.00 | 0.74 | 0.03 | 97 | 1010.5 |
| 20260507100017 | 15 | 306 | 3.2 | 8.0 | 0.00 | 0.74 | 0.03 | 97 | 1010.3 |
| 20260507095017 | 15 | 303 | 6.4 | 14.5 | 0.00 | 0.74 | 0.03 | 99 | 1010.5 |
| 20260507094058 | 16 | 307 | 6.4 | 16.1 | 0.00 | 0.74 | 0.03 | 99 | 1010.2 |
| 20260507093018 | 16 | 300 | 3.2 | 6.4 | 0.00 | 0.74 | 0.03 | 99 | 1010.6 |
| 20260507092018 | 16 | 304 | 3.2 | 6.4 | 0.00 | 0.74 | 0.00 | 99 | 1010.4 |
| 20260507091018 | 16 | 192 | 1.6 | 3.2 | 0.00 | 0.74 | 0.00 | 99 | 1009.9 |
| 20260507090016 | 16 | 183 | 1.6 | 3.2 | 0.00 | 0.74 | 0.00 | 99 | 1010.2 |
| 20260507085016 | 16 | 295 | 3.2 | 6.4 | 0.00 | 0.74 | 0.00 | 99 | 1010.4 |
| 20260507084016 | 16 | 299 | 1.6 | 3.2 | 0.00 | 0.74 | 0.00 | 99 | 1010.6 |
| 20260507083017 | 16 | 300 | 1.6 | 3.2 | 0.00 | 0.74 | 0.00 | 99 | 1010.4 |
| 20260507082017 | 16 | 299 | 0.0 | 3.2 | 0.00 | 0.74 | 0.00 | 99 | 1010.6 |
| 20260507081037 | 16 | 45 | 0.0 | 1.6 | 0.00 | 0.74 | 0.00 | 99 | 1010.7 |
| 20260507080017 | 16 | 129 | 0.0 | 1.6 | 0.00 | 0.74 | 0.00 | 99 | 1010.7 |
| 20260507075017 | 16 | 138 | 0.0 | 1.6 | 0.00 | 0.74 | 0.00 | 99 | 1010.7 |
| 20260507074036 | 16 | 296 | 3.2 | 6.4 | 0.00 | 0.74 | 0.00 | 99 | 1010.7 |
| 20260507073016 | 16 | 308 | 3.2 | 8.0 | 0.00 | 0.74 | 0.00 | 99 | 1010.9 |
| 20260507072056 | 16 | 300 | 0.0 | 3.2 | 0.00 | 0.74 | 0.00 | 99 | 1010.8 |
| 20260507071016 | 16 | 148 | 1.6 | 3.2 | 0.00 | 0.74 | 0.00 | 99 | 1010.5 |
| 20260507070016 | 16 | 293 | 1.6 | 4.8 | 0.00 | 0.74 | 0.00 | 99 | 1010.4 |
| 20260507065017 | 16 | 307 | 1.6 | 6.4 | 0.00 | 0.74 | 0.00 | 99 | 1010.5 |
| 20260507064017 | 16 | 282 | 0.0 | 3.2 | 0.00 | 0.74 | 0.00 | 99 | 1010.4 |
| 20260507063017 | 16 | 226 | 0.0 | 1.6 | 0.00 | 0.74 | 0.00 | 99 | 1010.2 |
| 20260507062017 | 16 | 223 | 0.0 | 1.6 | 0.00 | 0.74 | 0.00 | 99 | 1010.4 |
| 20260507061017 | 16 | 185 | 0.0 | 3.2 | 0.00 | 0.74 | 0.00 | 99 | 1010.5 |
| 20260507060038 | 17 | 315 | 0.0 | 3.2 | 0.00 | 0.74 | 0.00 | 99 | 1010.8 |
| 20260507055017 | 16 | 313 | 0.0 | 3.2 | 0.00 | 0.74 | 0.00 | 99 | 1010.8 |
| 20260507054017 | 16 | 78 | 3.2 | 4.8 | 0.00 | 0.74 | 0.00 | 99 | 1011.0 |
| 20260507053018 | 16 | 324 | 1.6 | 4.8 | 0.00 | 0.74 | 0.00 | 99 | 1011.2 |
| 20260507052018 | 16 | 294 | 1.6 | 4.8 | 0.00 | 0.71 | 0.00 | 99 | 1011.5 |
| 20260507051018 | 16 | 119 | 1.6 | 4.8 | 0.00 | 0.71 | 0.00 | 99 | 1011.4 |
| 20260507050018 | 16 | 185 | 0.0 | 3.2 | 0.00 | 0.71 | 0.00 | 100 | 1011.4 |
| 20260507045015 | 16 | 155 | 0.0 | 3.2 | 0.00 | 0.71 | 0.00 | 100 | 1011.0 |
| 20260507044018 | 16 | 197 | 0.0 | 3.2 | 0.00 | 0.71 | 0.00 | 100 | 1011.1 |